sensor_id;sensor_type;location;lat;lon;timestamp;pressure;altitude;pressure_sealevel;temperature;humidity
49342;BME280;35210;41.606;-87.602;2023-01-26T00:01:48;98631.31;;;4.42;90.45
49342;BME280;35210;41.606;-87.602;2023-01-26T00:04:17;98631.31;;;4.42;90.89
49342;BME280;35210;41.606;-87.602;2023-01-26T00:06:46;98635.69;;;4.41;90.73
49342;BME280;35210;41.606;-87.602;2023-01-26T00:09:14;98637.97;;;4.46;90.92
49342;BME280;35210;41.606;-87.602;2023-01-26T00:11:43;98641.44;;;4.46;90.59
49342;BME280;35210;41.606;-87.602;2023-01-26T00:14:11;98636.00;;;4.49;90.68
49342;BME280;35210;41.606;-87.602;2023-01-26T00:16:39;98643.66;;;4.52;90.11
49342;BME280;35210;41.606;-87.602;2023-01-26T00:19:08;98654.09;;;4.52;89.63
49342;BME280;35210;41.606;-87.602;2023-01-26T00:21:36;98652.94;;;4.44;90.20
49342;BME280;35210;41.606;-87.602;2023-01-26T00:24:06;98660.88;;;4.42;90.40
49342;BME280;35210;41.606;-87.602;2023-01-26T00:26:34;98664.34;;;4.43;89.82
49342;BME280;35210;41.606;-87.602;2023-01-26T00:29:02;98660.25;;;4.39;90.00
49342;BME280;35210;41.606;-87.602;2023-01-26T00:31:30;98661.00;;;4.41;90.05
49342;BME280;35210;41.606;-87.602;2023-01-26T00:33:58;98664.72;;;4.37;89.92
49342;BME280;35210;41.606;-87.602;2023-01-26T00:36:26;98666.97;;;4.43;90.28
49342;BME280;35210;41.606;-87.602;2023-01-26T00:38:55;98665.66;;;4.36;90.31
49342;BME280;35210;41.606;-87.602;2023-01-26T00:41:25;98665.56;;;4.37;90.02
49342;BME280;35210;41.606;-87.602;2023-01-26T00:44:10;98666.06;;;4.29;89.59
49342;BME280;35210;41.606;-87.602;2023-01-26T00:46:38;98664.94;;;4.34;90.15
49342;BME280;35210;41.606;-87.602;2023-01-26T00:49:07;98662.88;;;4.39;89.30
49342;BME280;35210;41.606;-87.602;2023-01-26T00:51:36;98669.31;;;4.33;89.55
49342;BME280;35210;41.606;-87.602;2023-01-26T00:54:04;98670.44;;;4.29;90.30
49342;BME280;35210;41.606;-87.602;2023-01-26T00:56:34;98671.38;;;4.28;90.41
49342;BME280;35210;41.606;-87.602;2023-01-26T00:59:02;98678.47;;;4.26;90.89
49342;BME280;35210;41.606;-87.602;2023-01-26T01:01:32;98673.81;;;4.31;91.24
49342;BME280;35210;41.606;-87.602;2023-01-26T01:04:00;98673.72;;;4.33;90.34
49342;BME280;35210;41.606;-87.602;2023-01-26T01:06:28;98678.00;;;4.34;91.09
49342;BME280;35210;41.606;-87.602;2023-01-26T01:08:56;98675.28;;;4.35;90.53
49342;BME280;35210;41.606;-87.602;2023-01-26T01:11:24;98678.34;;;4.42;91.00
49342;BME280;35210;41.606;-87.602;2023-01-26T01:13:54;98674.81;;;4.43;90.48
49342;BME280;35210;41.606;-87.602;2023-01-26T01:16:22;98674.47;;;4.47;90.33
49342;BME280;35210;41.606;-87.602;2023-01-26T01:18:52;98680.63;;;4.46;90.68
49342;BME280;35210;41.606;-87.602;2023-01-26T01:21:21;98678.16;;;4.45;90.26
49342;BME280;35210;41.606;-87.602;2023-01-26T01:23:49;98678.03;;;4.46;90.11
49342;BME280;35210;41.606;-87.602;2023-01-26T01:26:18;98679.00;;;4.45;90.33
49342;BME280;35210;41.606;-87.602;2023-01-26T01:28:46;98684.84;;;4.49;89.82
49342;BME280;35210;41.606;-87.602;2023-01-26T01:31:17;98677.09;;;4.47;89.28
49342;BME280;35210;41.606;-87.602;2023-01-26T01:33:45;98677.50;;;4.41;89.40
49342;BME280;35210;41.606;-87.602;2023-01-26T01:36:15;98685.34;;;4.41;89.84
49342;BME280;35210;41.606;-87.602;2023-01-26T01:38:45;98679.38;;;4.39;89.56
49342;BME280;35210;41.606;-87.602;2023-01-26T01:41:15;98696.00;;;4.38;90.04
49342;BME280;35210;41.606;-87.602;2023-01-26T01:43:44;98690.59;;;4.41;89.36
49342;BME280;35210;41.606;-87.602;2023-01-26T01:46:19;98704.88;;;4.36;89.58
49342;BME280;35210;41.606;-87.602;2023-01-26T01:48:56;98707.59;;;4.34;89.90
49342;BME280;35210;41.606;-87.602;2023-01-26T01:51:31;98710.00;;;4.37;89.70
49342;BME280;35210;41.606;-87.602;2023-01-26T01:54:03;98705.16;;;4.31;89.79
49342;BME280;35210;41.606;-87.602;2023-01-26T01:56:34;98711.13;;;4.33;90.39
49342;BME280;35210;41.606;-87.602;2023-01-26T01:59:06;98712.16;;;4.31;89.92
49342;BME280;35210;41.606;-87.602;2023-01-26T02:01:37;98713.00;;;4.31;89.74
49342;BME280;35210;41.606;-87.602;2023-01-26T02:04:07;98710.28;;;4.33;89.22
49342;BME280;35210;41.606;-87.602;2023-01-26T02:06:41;98716.00;;;4.25;89.84
49342;BME280;35210;41.606;-87.602;2023-01-26T02:09:13;98713.94;;;4.30;89.45
49342;BME280;35210;41.606;-87.602;2023-01-26T02:11:58;98714.13;;;4.27;89.53
49342;BME280;35210;41.606;-87.602;2023-01-26T02:14:28;98714.50;;;4.21;90.01
49342;BME280;35210;41.606;-87.602;2023-01-26T02:16:58;98721.41;;;4.22;89.84
49342;BME280;35210;41.606;-87.602;2023-01-26T02:19:36;98731.31;;;4.17;89.80
49342;BME280;35210;41.606;-87.602;2023-01-26T02:22:13;98733.38;;;4.12;89.54
49342;BME280;35210;41.606;-87.602;2023-01-26T02:24:45;98732.34;;;4.14;89.98
49342;BME280;35210;41.606;-87.602;2023-01-26T02:27:16;98731.50;;;4.14;89.96
49342;BME280;35210;41.606;-87.602;2023-01-26T02:29:44;98732.34;;;4.14;90.35
49342;BME280;35210;41.606;-87.602;2023-01-26T02:32:12;98735.06;;;4.13;90.64
49342;BME280;35210;41.606;-87.602;2023-01-26T02:34:41;98736.72;;;4.14;90.53
49342;BME280;35210;41.606;-87.602;2023-01-26T02:37:13;98743.63;;;4.15;89.46
49342;BME280;35210;41.606;-87.602;2023-01-26T02:39:44;98740.28;;;4.13;89.25
49342;BME280;35210;41.606;-87.602;2023-01-26T02:42:17;98744.47;;;4.15;89.64
49342;BME280;35210;41.606;-87.602;2023-01-26T02:45:03;98752.22;;;4.17;88.43
49342;BME280;35210;41.606;-87.602;2023-01-26T02:47:31;98743.44;;;4.18;88.39
49342;BME280;35210;41.606;-87.602;2023-01-26T02:49:59;98742.50;;;4.19;88.31
49342;BME280;35210;41.606;-87.602;2023-01-26T02:52:28;98749.78;;;4.14;88.17
49342;BME280;35210;41.606;-87.602;2023-01-26T02:54:57;98749.25;;;4.09;88.63
49342;BME280;35210;41.606;-87.602;2023-01-26T02:57:44;98752.03;;;4.06;88.22
49342;BME280;35210;41.606;-87.602;2023-01-26T03:00:14;98745.88;;;4.07;88.53
49342;BME280;35210;41.606;-87.602;2023-01-26T03:02:44;98758.19;;;4.05;89.06
49342;BME280;35210;41.606;-87.602;2023-01-26T03:05:13;98754.56;;;4.07;88.78
49342;BME280;35210;41.606;-87.602;2023-01-26T03:07:42;98748.50;;;4.07;89.28
49342;BME280;35210;41.606;-87.602;2023-01-26T03:10:11;98746.06;;;4.04;88.45
49342;BME280;35210;41.606;-87.602;2023-01-26T03:12:43;98752.13;;;4.04;88.61
49342;BME280;35210;41.606;-87.602;2023-01-26T03:15:12;98749.44;;;4.06;88.70
49342;BME280;35210;41.606;-87.602;2023-01-26T03:18:01;98747.28;;;4.12;89.02
49342;BME280;35210;41.606;-87.602;2023-01-26T03:20:46;98755.97;;;4.13;88.22
49342;BME280;35210;41.606;-87.602;2023-01-26T03:23:31;98751.19;;;4.19;87.46
49342;BME280;35210;41.606;-87.602;2023-01-26T03:26:16;98765.66;;;4.11;88.17
49342;BME280;35210;41.606;-87.602;2023-01-26T03:29:04;98763.41;;;4.05;87.75
49342;BME280;35210;41.606;-87.602;2023-01-26T03:31:32;98768.66;;;4.05;88.16
49342;BME280;35210;41.606;-87.602;2023-01-26T03:34:00;98768.84;;;4.02;88.65
49342;BME280;35210;41.606;-87.602;2023-01-26T03:36:28;98765.94;;;4.06;88.88
49342;BME280;35210;41.606;-87.602;2023-01-26T03:38:56;98765.28;;;4.03;88.49
49342;BME280;35210;41.606;-87.602;2023-01-26T03:41:24;98767.81;;;4.04;88.27
49342;BME280;35210;41.606;-87.602;2023-01-26T03:44:10;98775.94;;;4.00;88.97
49342;BME280;35210;41.606;-87.602;2023-01-26T03:46:56;98767.25;;;3.99;89.22
49342;BME280;35210;41.606;-87.602;2023-01-26T03:49:42;98766.13;;;4.03;89.48
49342;BME280;35210;41.606;-87.602;2023-01-26T03:52:30;98769.84;;;3.99;88.73
49342;BME280;35210;41.606;-87.602;2023-01-26T03:55:15;98768.75;;;4.03;89.33
49342;BME280;35210;41.606;-87.602;2023-01-26T03:58:00;98776.31;;;4.08;88.33
49342;BME280;35210;41.606;-87.602;2023-01-26T04:00:31;98778.91;;;4.08;88.41
49342;BME280;35210;41.606;-87.602;2023-01-26T04:02:59;98777.31;;;4.05;88.26
49342;BME280;35210;41.606;-87.602;2023-01-26T04:05:44;98778.25;;;4.04;89.02
49342;BME280;35210;41.606;-87.602;2023-01-26T04:08:29;98779.66;;;4.10;88.98
49342;BME280;35210;41.606;-87.602;2023-01-26T04:10:57;98781.44;;;4.09;87.99
49342;BME280;35210;41.606;-87.602;2023-01-26T04:13:25;98782.47;;;4.07;88.90
49342;BME280;35210;41.606;-87.602;2023-01-26T04:16:12;98792.34;;;4.02;88.14
49342;BME280;35210;41.606;-87.602;2023-01-26T04:18:57;98790.75;;;3.99;88.80
49342;BME280;35210;41.606;-87.602;2023-01-26T04:21:42;98802.97;;;3.99;88.48
49342;BME280;35210;41.606;-87.602;2023-01-26T04:24:10;98806.63;;;3.96;88.65
49342;BME280;35210;41.606;-87.602;2023-01-26T04:26:40;98818.09;;;3.93;88.31
49342;BME280;35210;41.606;-87.602;2023-01-26T04:29:10;98815.94;;;3.86;88.92
49342;BME280;35210;41.606;-87.602;2023-01-26T04:31:41;98823.31;;;3.93;88.83
49342;BME280;35210;41.606;-87.602;2023-01-26T04:34:11;98816.59;;;3.89;88.96
49342;BME280;35210;41.606;-87.602;2023-01-26T04:36:40;98812.19;;;3.90;88.79
49342;BME280;35210;41.606;-87.602;2023-01-26T04:39:09;98818.28;;;3.90;88.86
49342;BME280;35210;41.606;-87.602;2023-01-26T04:41:37;98819.00;;;3.92;89.30
49342;BME280;35210;41.606;-87.602;2023-01-26T04:44:05;98817.44;;;3.90;89.07
49342;BME280;35210;41.606;-87.602;2023-01-26T04:46:33;98815.09;;;3.85;89.07
49342;BME280;35210;41.606;-87.602;2023-01-26T04:49:04;98816.78;;;3.86;89.45
49342;BME280;35210;41.606;-87.602;2023-01-26T04:51:32;98819.09;;;3.91;89.40
49342;BME280;35210;41.606;-87.602;2023-01-26T04:54:00;98817.69;;;3.85;88.85
49342;BME280;35210;41.606;-87.602;2023-01-26T04:56:30;98821.25;;;3.84;88.75
49342;BME280;35210;41.606;-87.602;2023-01-26T04:59:01;98820.59;;;3.81;89.71
49342;BME280;35210;41.606;-87.602;2023-01-26T05:01:31;98827.41;;;3.83;89.96
49342;BME280;35210;41.606;-87.602;2023-01-26T05:04:00;98832.22;;;3.75;89.11
49342;BME280;35210;41.606;-87.602;2023-01-26T05:06:30;98834.31;;;3.70;90.19
49342;BME280;35210;41.606;-87.602;2023-01-26T05:08:59;98838.94;;;3.65;89.95
49342;BME280;35210;41.606;-87.602;2023-01-26T05:11:27;98846.78;;;3.65;90.51
49342;BME280;35210;41.606;-87.602;2023-01-26T05:13:55;98837.81;;;3.55;89.89
49342;BME280;35210;41.606;-87.602;2023-01-26T05:16:23;98841.06;;;3.28;91.86
49342;BME280;35210;41.606;-87.602;2023-01-26T05:18:52;98847.03;;;3.30;92.21
49342;BME280;35210;41.606;-87.602;2023-01-26T05:21:21;98839.38;;;3.27;91.34
49342;BME280;35210;41.606;-87.602;2023-01-26T05:23:54;98848.47;;;3.20;92.48
49342;BME280;35210;41.606;-87.602;2023-01-26T05:26:22;98846.63;;;3.22;92.37
49342;BME280;35210;41.606;-87.602;2023-01-26T05:28:50;98846.78;;;3.19;92.08
49342;BME280;35210;41.606;-87.602;2023-01-26T05:31:19;98851.00;;;3.22;93.05
49342;BME280;35210;41.606;-87.602;2023-01-26T05:33:48;98852.50;;;3.26;92.81
49342;BME280;35210;41.606;-87.602;2023-01-26T05:36:16;98844.75;;;3.24;92.82
49342;BME280;35210;41.606;-87.602;2023-01-26T05:38:44;98841.06;;;3.28;92.65
49342;BME280;35210;41.606;-87.602;2023-01-26T05:41:14;98835.91;;;3.27;92.41
49342;BME280;35210;41.606;-87.602;2023-01-26T05:43:43;98832.66;;;3.23;93.11
49342;BME280;35210;41.606;-87.602;2023-01-26T05:46:11;98839.03;;;3.34;92.37
49342;BME280;35210;41.606;-87.602;2023-01-26T05:48:40;98839.88;;;3.34;92.47
49342;BME280;35210;41.606;-87.602;2023-01-26T05:51:08;98844.34;;;3.32;91.97
49342;BME280;35210;41.606;-87.602;2023-01-26T05:53:36;98851.72;;;3.40;92.59
49342;BME280;35210;41.606;-87.602;2023-01-26T05:56:05;98846.16;;;3.46;92.78
49342;BME280;35210;41.606;-87.602;2023-01-26T05:58:35;98852.13;;;3.48;92.43
49342;BME280;35210;41.606;-87.602;2023-01-26T06:01:03;98857.19;;;3.51;91.85
49342;BME280;35210;41.606;-87.602;2023-01-26T06:03:31;98865.22;;;3.62;92.13
49342;BME280;35210;41.606;-87.602;2023-01-26T06:05:59;98857.66;;;3.57;90.78
49342;BME280;35210;41.606;-87.602;2023-01-26T06:08:27;98855.81;;;3.59;89.97
49342;BME280;35210;41.606;-87.602;2023-01-26T06:10:58;98860.19;;;3.59;90.29
49342;BME280;35210;41.606;-87.602;2023-01-26T06:13:26;98862.53;;;3.63;89.39
49342;BME280;35210;41.606;-87.602;2023-01-26T06:15:59;98860.75;;;3.64;88.95
49342;BME280;35210;41.606;-87.602;2023-01-26T06:18:27;98863.47;;;3.62;89.01
49342;BME280;35210;41.606;-87.602;2023-01-26T06:20:58;98848.06;;;3.58;88.23
49342;BME280;35210;41.606;-87.602;2023-01-26T06:23:27;98861.38;;;3.53;88.89
49342;BME280;35210;41.606;-87.602;2023-01-26T06:25:58;98863.69;;;3.28;89.14
49342;BME280;35210;41.606;-87.602;2023-01-26T06:28:29;98861.44;;;3.22;89.38
49342;BME280;35210;41.606;-87.602;2023-01-26T06:31:03;98870.84;;;3.24;90.21
49342;BME280;35210;41.606;-87.602;2023-01-26T06:33:34;98860.84;;;3.33;89.97
49342;BME280;35210;41.606;-87.602;2023-01-26T06:36:04;98859.56;;;3.40;89.60
49342;BME280;35210;41.606;-87.602;2023-01-26T06:38:33;98860.31;;;3.42;89.76
49342;BME280;35210;41.606;-87.602;2023-01-26T06:41:02;98857.69;;;3.42;89.38
49342;BME280;35210;41.606;-87.602;2023-01-26T06:43:32;98861.25;;;3.41;89.16
49342;BME280;35210;41.606;-87.602;2023-01-26T06:46:04;98865.53;;;3.42;89.18
49342;BME280;35210;41.606;-87.602;2023-01-26T06:48:33;98862.09;;;3.41;88.82
49342;BME280;35210;41.606;-87.602;2023-01-26T06:53:52;98873.03;;;3.32;89.38
49342;BME280;35210;41.606;-87.602;2023-01-26T06:56:21;98867.41;;;3.24;89.92
49342;BME280;35210;41.606;-87.602;2023-01-26T06:58:49;98871.94;;;3.20;90.19
49342;BME280;35210;41.606;-87.602;2023-01-26T07:01:20;98874.97;;;3.28;90.32
49342;BME280;35210;41.606;-87.602;2023-01-26T07:03:49;98870.84;;;3.24;90.21
49342;BME280;35210;41.606;-87.602;2023-01-26T07:06:18;98869.19;;;3.23;90.70
49342;BME280;35210;41.606;-87.602;2023-01-26T07:08:46;98874.91;;;3.30;89.83
49342;BME280;35210;41.606;-87.602;2023-01-26T07:11:15;98877.94;;;3.22;89.88
49342;BME280;35210;41.606;-87.602;2023-01-26T07:13:45;98880.53;;;3.22;90.85
49342;BME280;35210;41.606;-87.602;2023-01-26T07:16:14;98881.03;;;3.29;90.03
49342;BME280;35210;41.606;-87.602;2023-01-26T07:18:46;98882.56;;;3.17;90.66
49342;BME280;35210;41.606;-87.602;2023-01-26T07:21:15;98890.81;;;3.25;90.38
49342;BME280;35210;41.606;-87.602;2023-01-26T07:23:44;98890.22;;;3.05;89.77
49342;BME280;35210;41.606;-87.602;2023-01-26T07:26:13;98889.38;;;3.04;90.82
49342;BME280;35210;41.606;-87.602;2023-01-26T07:28:41;98893.09;;;3.16;91.95
49342;BME280;35210;41.606;-87.602;2023-01-26T07:31:10;98895.59;;;3.17;91.20
49342;BME280;35210;41.606;-87.602;2023-01-26T07:33:39;98894.69;;;3.18;91.54
49342;BME280;35210;41.606;-87.602;2023-01-26T07:36:09;98903.84;;;3.25;91.46
49342;BME280;35210;41.606;-87.602;2023-01-26T07:38:37;98902.00;;;3.27;90.93
49342;BME280;35210;41.606;-87.602;2023-01-26T07:41:07;98902.50;;;3.18;91.02
49342;BME280;35210;41.606;-87.602;2023-01-26T07:43:37;98908.22;;;3.25;91.19
49342;BME280;35210;41.606;-87.602;2023-01-26T07:46:06;98915.72;;;3.31;91.38
49342;BME280;35210;41.606;-87.602;2023-01-26T07:48:35;98908.72;;;3.32;90.63
49342;BME280;35210;41.606;-87.602;2023-01-26T07:51:04;98919.00;;;3.35;90.67
49342;BME280;35210;41.606;-87.602;2023-01-26T07:53:36;98919.00;;;3.35;90.15
49342;BME280;35210;41.606;-87.602;2023-01-26T07:56:06;98919.84;;;3.35;91.03
49342;BME280;35210;41.606;-87.602;2023-01-26T07:58:35;98922.34;;;3.37;89.85
49342;BME280;35210;41.606;-87.602;2023-01-26T08:01:11;98930.88;;;3.24;90.40
49342;BME280;35210;41.606;-87.602;2023-01-26T08:03:40;98932.63;;;3.24;90.78
49342;BME280;35210;41.606;-87.602;2023-01-26T08:06:11;98931.63;;;3.26;90.76
49342;BME280;35210;41.606;-87.602;2023-01-26T08:08:41;98942.75;;;3.30;89.79
49342;BME280;35210;41.606;-87.602;2023-01-26T08:11:10;98941.56;;;3.20;90.03
49342;BME280;35210;41.606;-87.602;2023-01-26T08:13:39;98942.41;;;3.20;91.18
49342;BME280;35210;41.606;-87.602;2023-01-26T08:16:08;98950.81;;;3.25;90.83
49342;BME280;35210;41.606;-87.602;2023-01-26T08:18:37;98945.44;;;3.28;90.56
49342;BME280;35210;41.606;-87.602;2023-01-26T08:21:05;98947.28;;;3.26;90.25
49342;BME280;35210;41.606;-87.602;2023-01-26T08:23:35;98938.53;;;3.27;90.64
49342;BME280;35210;41.606;-87.602;2023-01-26T08:26:08;98937.59;;;3.28;90.87
49342;BME280;35210;41.606;-87.602;2023-01-26T08:28:37;98947.44;;;3.23;89.88
49342;BME280;35210;41.606;-87.602;2023-01-26T08:31:08;98938.69;;;3.09;90.48
49342;BME280;35210;41.606;-87.602;2023-01-26T08:33:38;98941.22;;;3.10;90.64
49342;BME280;35210;41.606;-87.602;2023-01-26T08:36:08;98940.28;;;3.11;90.25
49342;BME280;35210;41.606;-87.602;2023-01-26T08:38:37;98943.22;;;3.05;90.67
49342;BME280;35210;41.606;-87.602;2023-01-26T08:41:08;98946.50;;;3.09;91.42
49342;BME280;35210;41.606;-87.602;2023-01-26T08:43:37;98944.59;;;3.12;91.44
49342;BME280;35210;41.606;-87.602;2023-01-26T08:46:06;98945.44;;;3.13;90.42
49342;BME280;35210;41.606;-87.602;2023-01-26T08:48:34;98948.28;;;3.08;90.32
49342;BME280;35210;41.606;-87.602;2023-01-26T08:51:04;98941.53;;;3.04;90.53
49342;BME280;35210;41.606;-87.602;2023-01-26T08:53:34;98941.03;;;2.97;90.45
49342;BME280;35210;41.606;-87.602;2023-01-26T08:56:03;98945.34;;;2.83;91.11
49342;BME280;35210;41.606;-87.602;2023-01-26T08:58:33;98955.00;;;2.81;91.76
49342;BME280;35210;41.606;-87.602;2023-01-26T09:01:04;98947.78;;;2.86;92.31
49342;BME280;35210;41.606;-87.602;2023-01-26T09:03:33;98955.19;;;2.93;92.25
49342;BME280;35210;41.606;-87.602;2023-01-26T09:06:01;98951.91;;;2.90;91.82
49342;BME280;35210;41.606;-87.602;2023-01-26T09:08:31;98955.53;;;2.87;91.41
49342;BME280;35210;41.606;-87.602;2023-01-26T09:10:59;98956.53;;;2.85;92.37
49342;BME280;35210;41.606;-87.602;2023-01-26T09:13:27;98955.34;;;2.90;91.49
49342;BME280;35210;41.606;-87.602;2023-01-26T09:15:57;98957.22;;;2.88;92.05
49342;BME280;35210;41.606;-87.602;2023-01-26T09:18:25;98962.25;;;2.91;91.69
49342;BME280;35210;41.606;-87.602;2023-01-26T09:20:53;98970.84;;;2.93;92.16
49342;BME280;35210;41.606;-87.602;2023-01-26T09:23:21;98971.09;;;2.89;91.05
49342;BME280;35210;41.606;-87.602;2023-01-26T09:25:52;98977.88;;;2.76;91.89
49342;BME280;35210;41.606;-87.602;2023-01-26T09:28:20;98984.88;;;2.58;91.84
49342;BME280;35210;41.606;-87.602;2023-01-26T09:30:48;98981.59;;;2.54;92.78
49342;BME280;35210;41.606;-87.602;2023-01-26T09:33:17;98980.19;;;2.64;93.36
49342;BME280;35210;41.606;-87.602;2023-01-26T09:35:48;98980.56;;;2.74;93.14
49342;BME280;35210;41.606;-87.602;2023-01-26T09:38:16;98984.00;;;2.75;93.39
49342;BME280;35210;41.606;-87.602;2023-01-26T09:40:50;98988.06;;;2.80;93.34
49342;BME280;35210;41.606;-87.602;2023-01-26T09:43:30;98985.97;;;2.87;91.85
49342;BME280;35210;41.606;-87.602;2023-01-26T09:46:07;98982.84;;;2.80;91.10
49342;BME280;35210;41.606;-87.602;2023-01-26T09:48:44;98991.25;;;2.85;92.48
49342;BME280;35210;41.606;-87.602;2023-01-26T09:51:19;98989.19;;;2.92;92.02
49342;BME280;35210;41.606;-87.602;2023-01-26T09:53:53;98994.41;;;2.92;91.54
49342;BME280;35210;41.606;-87.602;2023-01-26T09:56:26;99000.53;;;2.91;92.74
49342;BME280;35210;41.606;-87.602;2023-01-26T09:58:58;98999.25;;;2.98;92.77
49342;BME280;35210;41.606;-87.602;2023-01-26T10:01:35;98999.78;;;3.05;91.82
49342;BME280;35210;41.606;-87.602;2023-01-26T10:04:12;98997.59;;;3.13;92.25
49342;BME280;35210;41.606;-87.602;2023-01-26T10:06:43;98995.91;;;3.12;90.71
49342;BME280;35210;41.606;-87.602;2023-01-26T10:09:16;99002.13;;;3.09;89.85
49342;BME280;35210;41.606;-87.602;2023-01-26T10:11:50;99006.25;;;2.97;89.84
49342;BME280;35210;41.606;-87.602;2023-01-26T10:14:32;99001.63;;;2.87;90.87
49342;BME280;35210;41.606;-87.602;2023-01-26T10:17:07;99015.06;;;2.79;90.26
49342;BME280;35210;41.606;-87.602;2023-01-26T10:19:46;99011.75;;;2.76;91.01
49342;BME280;35210;41.606;-87.602;2023-01-26T10:22:21;99005.78;;;2.74;91.90
49342;BME280;35210;41.606;-87.602;2023-01-26T10:24:52;99014.84;;;2.67;91.67
49342;BME280;35210;41.606;-87.602;2023-01-26T10:27:23;99004.19;;;2.71;92.45
49342;BME280;35210;41.606;-87.602;2023-01-26T10:29:51;99015.28;;;2.75;93.11
49342;BME280;35210;41.606;-87.602;2023-01-26T10:32:20;99014.22;;;2.79;93.10
49342;BME280;35210;41.606;-87.602;2023-01-26T10:34:50;99010.28;;;2.87;91.94
49342;BME280;35210;41.606;-87.602;2023-01-26T10:37:22;99011.72;;;2.93;92.41
49342;BME280;35210;41.606;-87.602;2023-01-26T10:40:00;99013.91;;;3.01;91.98
49342;BME280;35210;41.606;-87.602;2023-01-26T10:42:31;99012.28;;;2.98;91.72
49342;BME280;35210;41.606;-87.602;2023-01-26T10:45:01;99004.16;;;3.04;91.31
49342;BME280;35210;41.606;-87.602;2023-01-26T10:47:31;99015.19;;;3.09;91.36
49342;BME280;35210;41.606;-87.602;2023-01-26T10:50:20;99014.25;;;3.10;90.66
49342;BME280;35210;41.606;-87.602;2023-01-26T10:52:57;99009.97;;;3.09;90.28
49342;BME280;35210;41.606;-87.602;2023-01-26T10:55:26;99009.78;;;3.12;90.05
49342;BME280;35210;41.606;-87.602;2023-01-26T10:57:55;99021.16;;;3.11;nan
49342;BME280;35210;41.606;-87.602;2023-01-26T11:00:25;99022.69;;;3.15;90.41
49342;BME280;35210;41.606;-87.602;2023-01-26T11:03:03;99024.03;;;3.22;89.15
49342;BME280;35210;41.606;-87.602;2023-01-26T11:05:33;99025.72;;;3.23;89.30
49342;BME280;35210;41.606;-87.602;2023-01-26T11:08:01;99033.63;;;3.22;90.09
49342;BME280;35210;41.606;-87.602;2023-01-26T11:10:33;99030.25;;;3.20;89.39
49342;BME280;35210;41.606;-87.602;2023-01-26T11:13:13;99028.66;;;3.17;89.53
49342;BME280;35210;41.606;-87.602;2023-01-26T11:15:45;99032.34;;;3.13;89.49
49342;BME280;35210;41.606;-87.602;2023-01-26T11:18:36;99031.28;;;3.17;90.08
49342;BME280;35210;41.606;-87.602;2023-01-26T11:21:12;99034.72;;;3.18;89.97
49342;BME280;35210;41.606;-87.602;2023-01-26T11:23:51;99035.19;;;3.09;89.09
49342;BME280;35210;41.606;-87.602;2023-01-26T11:27:05;99040.81;;;3.01;89.96
49342;BME280;35210;41.606;-87.602;2023-01-26T11:29:54;99039.75;;;3.05;90.42
49342;BME280;35210;41.606;-87.602;2023-01-26T11:32:31;99046.47;;;3.09;90.03
49342;BME280;35210;41.606;-87.602;2023-01-26T11:35:11;99049.25;;;3.06;90.17
49342;BME280;35210;41.606;-87.602;2023-01-26T11:37:46;99048.09;;;3.12;90.20
49342;BME280;35210;41.606;-87.602;2023-01-26T11:40:28;99058.75;;;3.07;90.31
49342;BME280;35210;41.606;-87.602;2023-01-26T11:43:14;99059.84;;;3.03;89.21
49342;BME280;35210;41.606;-87.602;2023-01-26T11:46:11;99059.44;;;2.95;87.46
49342;BME280;35210;41.606;-87.602;2023-01-26T11:48:51;99067.72;;;2.86;87.34
49342;BME280;35210;41.606;-87.602;2023-01-26T11:51:34;99071.97;;;2.54;87.48
49342;BME280;35210;41.606;-87.602;2023-01-26T11:54:18;99083.38;;;2.51;87.23
49342;BME280;35210;41.606;-87.602;2023-01-26T11:56:55;99076.94;;;2.41;87.82
49342;BME280;35210;41.606;-87.602;2023-01-26T11:59:33;99084.06;;;2.38;88.49
49342;BME280;35210;41.606;-87.602;2023-01-26T12:02:10;99087.81;;;2.32;87.66
49342;BME280;35210;41.606;-87.602;2023-01-26T12:04:45;99086.19;;;2.29;88.22
49342;BME280;35210;41.606;-87.602;2023-01-26T12:07:18;99087.75;;;2.16;85.58
49342;BME280;35210;41.606;-87.602;2023-01-26T12:09:51;99098.47;;;1.91;85.89
49342;BME280;35210;41.606;-87.602;2023-01-26T12:12:25;99098.47;;;1.91;85.67
49342;BME280;35210;41.606;-87.602;2023-01-26T12:15:01;99109.59;;;1.76;87.00
49342;BME280;35210;41.606;-87.602;2023-01-26T12:17:38;99104.41;;;1.76;85.77
49342;BME280;35210;41.606;-87.602;2023-01-26T12:20:22;99107.06;;;1.75;86.90
49342;BME280;35210;41.606;-87.602;2023-01-26T12:23:02;99108.06;;;1.72;87.20
49342;BME280;35210;41.606;-87.602;2023-01-26T12:25:34;99115.72;;;1.75;87.10
49342;BME280;35210;41.606;-87.602;2023-01-26T12:28:15;99116.78;;;1.71;86.38
49342;BME280;35210;41.606;-87.602;2023-01-26T12:30:51;99119.66;;;1.65;84.45
49342;BME280;35210;41.606;-87.602;2023-01-26T12:33:22;99131.25;;;1.58;84.08
49342;BME280;35210;41.606;-87.602;2023-01-26T12:36:16;99128.03;;;1.53;83.45
49342;BME280;35210;41.606;-87.602;2023-01-26T12:38:59;99137.47;;;1.37;83.54
49342;BME280;35210;41.606;-87.602;2023-01-26T12:44:36;99145.88;;;1.23;84.07
49342;BME280;35210;41.606;-87.602;2023-01-26T12:47:12;99146.97;;;1.17;83.58
49342;BME280;35210;41.606;-87.602;2023-01-26T12:49:48;99155.09;;;1.10;84.51
49342;BME280;35210;41.606;-87.602;2023-01-26T12:52:22;99142.31;;;1.05;83.95
49342;BME280;35210;41.606;-87.602;2023-01-26T12:54:57;99150.69;;;0.91;82.82
49342;BME280;35210;41.606;-87.602;2023-01-26T12:57:34;99150.75;;;0.70;82.78
49342;BME280;35210;41.606;-87.602;2023-01-26T13:00:17;99149.72;;;0.53;83.35
49342;BME280;35210;41.606;-87.602;2023-01-26T13:02:49;99155.75;;;0.32;83.56
49342;BME280;35210;41.606;-87.602;2023-01-26T13:05:27;99159.81;;;0.39;84.58
49342;BME280;35210;41.606;-87.602;2023-01-26T13:07:56;99162.28;;;0.42;84.22
49342;BME280;35210;41.606;-87.602;2023-01-26T13:10:26;99159.69;;;0.42;84.59
49342;BME280;35210;41.606;-87.602;2023-01-26T13:12:59;99168.31;;;0.43;84.94
49342;BME280;35210;41.606;-87.602;2023-01-26T13:15:29;99173.16;;;0.52;84.99
49342;BME280;35210;41.606;-87.602;2023-01-26T13:17:59;99179.56;;;0.43;83.59
49342;BME280;35210;41.606;-87.602;2023-01-26T13:20:48;99171.34;;;0.32;83.14
49342;BME280;35210;41.606;-87.602;2023-01-26T13:23:42;99186.81;;;0.35;82.76